Terminal Aerodrome Forecast
Issued by NWS

Home | Current Version | Previous Version | Text Only | Print | Product List | Glossary On
Versions: 1 2 3 4 5 6 7 8 9 10 11 12 13 14 15 16 17 18 19 20 21 22 23 24 25 26
000
FTUS41 KPHI 212300
TAFMIV
TAF
KMIV 212333Z 2200/2224 00000KT P6SM SCT200
     FM220600 27006KT P6SM SKC
     FM221300 30012G22KT P6SM FEW050
     FM222200 31005KT P6SM SKC=

USA.gov is the U.S. government's official web portal to all federal, state and local government web resources and services.